Hastings, Minnesota
Current Conditions -  °F | °C
As of 4:50 PM on Tuesday 21 Oct 2014 (Local Time) from KSGS Reporting Station
Clear Clear  
Wind Chill: 57°   Ceiling: Unl
Heat Index: 57°   Visibility: 10mi
Dew Point: 39°   Wind: 6mph
Humidity: 50%   Direction: 130°SE
Pressure: 30.14"   Gusts: NA
Location:  44.74°N, 92.85°W
Report Text: KSGS 212150Z AUTO 13005KT 10SM CLR 14/04 A3014 RMK AO2 T01400037
Loading
Personal Weather Stations






























Interactive Weather Map
Tropical Storm Tracking
New forecast layout! Learn more

10-Day Weather Forecast

Advertisements
Track Severe Weather on mobile